Mars — XPC8385 — position and weather

sailwx.info

Track history (hours):
 
Tides and Currents Weather Stations Pressure Air Temp Water Temp Dewpoint Dewpoint Depression Visibility Wind Speed Wind Dir Waves Ship Positions

Mars

Last reported at 2014-Dec-17 19:16 UTC. Time now 2014-Dec-17 19:57 UTC.
Position N 55°17' E 014°48'.

Length 14 m; draft 1.7 m.

Type: Pilot. MMSI: 219001058.

Date/timePositionNaut miles runAvg speedWind from/ knotsBaromVisibWave heightAir tempDewpointWater temp
2014-Dec-17 19:16N 55°17' E 014°48'0 0.0
2014-Dec-17 18:28N 55°17' E 014°48'0 0.0
2014-Dec-17 17:22N 55°17' E 014°48'0 0.0
2014-Dec-17 16:28N 55°17' E 014°48'0 0.0
2014-Dec-17 15:28N 55°17' E 014°48'0 0.0
2014-Dec-17 14:28N 55°17' E 014°48'0 0.0
2014-Dec-17 13:28N 55°17' E 014°48'0 0.0
2014-Dec-17 12:28N 55°17' E 014°48'0 0.0
2014-Dec-17 11:28N 55°17' E 014°48'0 0.0
2014-Dec-17 10:22N 55°17' E 014°48'0 0.0
2014-Dec-17 09:22N 55°17' E 014°48'0 0.0
2014-Dec-17 08:34N 55°17' E 014°48'0 0.0
2014-Dec-17 07:34N 55°17' E 014°48'0 0.0
2014-Dec-17 06:33N 55°17' E 014°48'0 0.0
2014-Dec-17 05:27N 55°17' E 014°48'0 0.0
2014-Dec-17 04:33N 55°17' E 014°48'0 0.0
2014-Dec-17 03:33N 55°17' E 014°48'0 0.0
2014-Dec-17 02:27N 55°17' E 014°48'0 0.0
2014-Dec-17 01:33N 55°17' E 014°48'0 0.0
2014-Dec-17 00:33N 55°17' E 014°48'0 0.0
2014-Dec-16 23:33N 55°17' E 014°48'0 0.0
2014-Dec-16 22:33N 55°17' E 014°48'0 0.0
2014-Dec-16 21:33N 55°17' E 014°48'0 0.0
2014-Dec-16 20:33N 55°17' E 014°48'0 0.0
2014-Dec-16 19:33N 55°17' E 014°48'0 0.0
2014-Dec-16 18:33N 55°17' E 014°48'0 0.0
2014-Dec-16 17:33N 55°17' E 014°48'0 0.0
2014-Dec-16 16:33N 55°17' E 014°48'0 0.0
2014-Dec-16 15:27N 55°17' E 014°48'0 0.0
2014-Dec-16 14:31N 55°17' E 014°48'0 0.0
2014-Dec-16 13:31N 55°17' E 014°48'2 0.8
2014-Dec-16 11:33N 55°18' E 014°49'2 0.1
2014-Dec-15 04:33N 55°17' E 014°48'2 1.9
2014-Dec-15 03:33N 55°19' E 014°48'2 0.3
2014-Dec-14 20:29N 55°17' E 014°48'0 0.0
2014-Dec-14 16:04N 55°17' E 014°48'0 0.0
2014-Dec-14 15:28N 55°17' E 014°48'0 0.0
2014-Dec-14 14:22N 55°17' E 014°48'0 0.0
2014-Dec-14 13:28N 55°17' E 014°48'0 0.0
2014-Dec-14 12:28N 55°17' E 014°48'0 0.0
2014-Dec-14 11:28N 55°17' E 014°48'0 0.0
2014-Dec-14 10:28N 55°17' E 014°48'0 0.0
2014-Dec-14 09:22N 55°17' E 014°48'1 0.2
2014-Dec-14 02:33N 55°17' E 014°50'1 0.6
2014-Dec-14 00:19N 55°17' E 014°48'0 0.0
2014-Dec-13 17:33N 55°17' E 014°48'0 0.0
2014-Dec-13 14:07N 55°17' E 014°48'4 2.3
2014-Dec-13 12:33N 55°16' E 014°54'4 1.7
2014-Dec-13 10:31N 55°17' E 014°48'0 0.0
2014-Dec-13 04:15N 55°17' E 014°48'0 0.0
2014-Dec-13 02:05N 55°17' E 014°48'2 3.3
2014-Dec-13 01:32N 55°18' E 014°51'2 1.3
2014-Dec-13 00:15N 55°17' E 014°48'0 0.0
2014-Dec-12 21:05N 55°17' E 014°48'1 1.2
2014-Dec-12 20:33N 55°17' E 014°49'1 0.2
2014-Dec-12 16:21N 55°17' E 014°48'0 0.0
2014-Dec-12 15:33N 55°17' E 014°48'0 0.0
2014-Dec-12 14:33N 55°17' E 014°48'0 0.0
2014-Dec-12 13:32N 55°17' E 014°48'0 0.0
2014-Dec-12 12:23N 55°17' E 014°48'0 0.0
2014-Dec-12 11:29N 55°17' E 014°48'0 0.0
2014-Dec-12 10:29N 55°17' E 014°48'0 0.0
2014-Dec-12 09:29N 55°17' E 014°48'0 0.0
2014-Dec-12 08:29N 55°17' E 014°48'0 0.0
2014-Dec-12 07:29N 55°17' E 014°48'2 1.8
2014-Dec-12 06:33N 55°17' E 014°51'2 1.4
2014-Dec-12 05:24N 55°17' E 014°48'0 0.0
2014-Dec-12 04:30N 55°17' E 014°48'0 0.0
2014-Dec-12 03:33N 55°17' E 014°48'0 0.0
2014-Dec-12 02:30N 55°17' E 014°48'0 0.0
2014-Dec-12 01:30N 55°17' E 014°48'0 0.0
2014-Dec-12 00:30N 55°17' E 014°48'0 0.0
2014-Dec-11 23:24N 55°17' E 014°48'0 0.0
2014-Dec-11 22:33N 55°17' E 014°48'0 0.0
2014-Dec-11 21:24N 55°17' E 014°48'0 0.0
2014-Dec-11 20:30N 55°17' E 014°48'0 0.0
2014-Dec-11 19:24N 55°17' E 014°48'0 0.0
2014-Dec-11 18:29N 55°17' E 014°48'0 0.0
2014-Dec-11 17:17N 55°17' E 014°48'0 0.0
2014-Dec-11 16:23N 55°17' E 014°48'0 0.0
2014-Dec-11 15:23N 55°17' E 014°48'0 0.0
2014-Dec-11 14:17N 55°17' E 014°48'0 0.0
2014-Dec-11 13:29N 55°17' E 014°48'0 0.0
2014-Dec-11 12:23N 55°17' E 014°48'0 0.0
2014-Dec-11 11:23N 55°17' E 014°48'0 0.0
2014-Dec-11 10:29N 55°17' E 014°48'0 0.0
2014-Dec-11 09:29N 55°17' E 014°48'0 0.0
2014-Dec-11 08:11N 55°17' E 014°48'0 0.0
2014-Dec-11 07:23N 55°17' E 014°48'2 2.7
2014-Dec-11 06:33N 55°16' E 014°52'2 2.2
2014-Dec-11 05:32N 55°17' E 014°48'0 0.0
2014-Dec-11 04:26N 55°17' E 014°48'0 0.0
2014-Dec-11 03:32N 55°17' E 014°48'0 0.0
2014-Dec-11 02:32N 55°17' E 014°48'0 0.0
2014-Dec-11 01:32N 55°17' E 014°48'0 0.0
2014-Dec-11 00:26N 55°17' E 014°48'0 0.0
2014-Dec-10 23:32N 55°17' E 014°48'0 0.0
2014-Dec-10 22:26N 55°17' E 014°48'0 0.0
2014-Dec-10 21:26N 55°17' E 014°48'3 3.0
2014-Dec-10 20:34N 55°17' E 014°53'3 2.6
2014-Dec-10 19:33N 55°17' E 014°48'0 0.0
2014-Dec-10 18:27N 55°17' E 014°48'0 0.0
2014-Dec-10 17:33N 55°17' E 014°48'0 0.0
2014-Dec-10 16:33N 55°17' E 014°48'0 0.0
2014-Dec-10 15:29N 55°17' E 014°48'0 0.0
2014-Dec-10 14:29N 55°17' E 014°48'0 0.0
2014-Dec-10 13:17N 55°17' E 014°48'0 0.0
2014-Dec-10 12:11N 55°17' E 014°48'0 0.0
2014-Dec-10 11:23N 55°17' E 014°48'0 0.0
2014-Dec-10 10:29N 55°17' E 014°48'0 0.0
2014-Dec-10 09:17N 55°17' E 014°48'0 0.0
2014-Dec-10 08:17N 55°17' E 014°48'0 0.0
2014-Dec-10 07:23N 55°17' E 014°48'0 0.0
2014-Dec-10 06:29N 55°17' E 014°48'0 0.0
2014-Dec-10 05:23N 55°17' E 014°48'0 0.0
2014-Dec-10 04:29N 55°17' E 014°48'0 0.0
2014-Dec-10 03:29N 55°17' E 014°48'0 0.0
2014-Dec-10 02:29N 55°17' E 014°48'0 0.0
2014-Dec-10 01:29N 55°17' E 014°48'0 0.0
2014-Dec-10 00:29N 55°17' E 014°48'0 0.0
2014-Dec-09 23:29N 55°17' E 014°48'0 0.0
2014-Dec-09 22:30N 55°17' E 014°48'0 0.0
2014-Dec-09 21:30N 55°17' E 014°48'2 1.7
2014-Dec-09 20:33N 55°18' E 014°50'2 1.5
2014-Dec-09 19:29N 55°17' E 014°48'0 0.0
2014-Dec-09 18:29N 55°17' E 014°48'0 0.0
2014-Dec-09 17:05N 55°17' E 014°48'0 0.0
2014-Dec-09 16:29N 55°17' E 014°48'0 0.0
2014-Dec-09 15:29N 55°17' E 014°48'0 0.0
2014-Dec-09 14:29N 55°17' E 014°48'0 0.0
2014-Dec-09 13:29N 55°17' E 014°48'0 0.0
2014-Dec-09 12:29N 55°17' E 014°48'0 0.0
2014-Dec-09 11:29N 55°17' E 014°48'0 0.0
2014-Dec-09 10:29N 55°17' E 014°48'0 0.0
2014-Dec-09 09:17N 55°17' E 014°48'0 0.0
2014-Dec-09 08:05N 55°17' E 014°48'0 0.0
2014-Dec-09 07:29N 55°17' E 014°48'0 0.0
2014-Dec-09 06:29N 55°17' E 014°48'0 0.0
2014-Dec-09 05:29N 55°17' E 014°48'0 0.0
2014-Dec-09 04:29N 55°17' E 014°48'0 0.0
2014-Dec-09 03:23N 55°17' E 014°48'0 0.0
2014-Dec-09 02:30N 55°17' E 014°48'0 0.0
2014-Dec-09 01:30N 55°17' E 014°48'0 0.0
2014-Dec-09 00:30N 55°17' E 014°48'0 0.0
2014-Dec-08 23:30N 55°17' E 014°48'0 0.0
2014-Dec-08 22:30N 55°17' E 014°48'0 0.0
2014-Dec-08 21:30N 55°17' E 014°48'0 0.0
2014-Dec-08 20:29N 55°17' E 014°48'0 0.0
2014-Dec-08 19:29N 55°17' E 014°48'0 0.0
2014-Dec-08 18:23N 55°17' E 014°48'0 0.0
2014-Dec-08 17:29N 55°17' E 014°48'0 0.0
2014-Dec-08 16:29N 55°17' E 014°48'0 0.0
2014-Dec-08 15:23N 55°17' E 014°48'0 0.0
2014-Dec-08 14:23N 55°17' E 014°48'0 0.0
2014-Dec-08 13:29N 55°17' E 014°48'0 0.0
2014-Dec-08 12:23N 55°17' E 014°48'0 0.2
2014-Dec-08 11:33N 55°17' E 014°48'0 0.2
2014-Dec-08 10:33N 55°17' E 014°48'0 0.0
2014-Dec-08 09:33N 55°17' E 014°48'0 0.0
2014-Dec-08 08:33N 55°17' E 014°48'0 0.0
2014-Dec-08 07:33N 55°17' E 014°48'0 0.0
2014-Dec-08 06:32N 55°17' E 014°48'0 0.0
2014-Dec-08 05:32N 55°17' E 014°48'0 0.0
2014-Dec-08 04:26N 55°17' E 014°48'2 2.8
2014-Dec-08 03:34N 55°19' E 014°51'2 2.3
2014-Dec-08 02:30N 55°17' E 014°48'0 0.0
2014-Dec-08 01:30N 55°17' E 014°48'0 0.0
2014-Dec-08 00:30N 55°17' E 014°48'0 0.0
2014-Dec-07 23:18N 55°17' E 014°48'0 0.0
2014-Dec-07 22:30N 55°17' E 014°48'0 0.0
2014-Dec-07 21:32N 55°17' E 014°48'0 0.0
2014-Dec-07 20:26N 55°17' E 014°48'0 0.0
2014-Dec-07 19:32N 55°17' E 014°48'  
Track history (hours):
 
Tides and Currents Weather Stations Pressure Air Temp Water Temp Dewpoint Dewpoint Depression Visibility Wind Speed Wind Dir Waves Ship Positions

Mars

Last reported at 2014-Dec-17 19:16 UTC. Time now 2014-Dec-17 19:57 UTC.
Position N 55°17' E 014°48'.

Length 14 m; draft 1.7 m.

Type: Pilot. MMSI: 219001058.

Date/timePositionNaut miles runAvg speedWind from/ knotsBaromVisibWave heightAir tempDewpointWater temp
2014-Dec-17 19:16N 55°17' E 014°48'0 0.0
2014-Dec-17 18:28N 55°17' E 014°48'0 0.0
2014-Dec-17 17:22N 55°17' E 014°48'0 0.0
2014-Dec-17 16:28N 55°17' E 014°48'0 0.0
2014-Dec-17 15:28N 55°17' E 014°48'0 0.0
2014-Dec-17 14:28N 55°17' E 014°48'0 0.0
2014-Dec-17 13:28N 55°17' E 014°48'0 0.0
2014-Dec-17 12:28N 55°17' E 014°48'0 0.0
2014-Dec-17 11:28N 55°17' E 014°48'0 0.0
2014-Dec-17 10:22N 55°17' E 014°48'0 0.0
2014-Dec-17 09:22N 55°17' E 014°48'0 0.0
2014-Dec-17 08:34N 55°17' E 014°48'0 0.0
2014-Dec-17 07:34N 55°17' E 014°48'0 0.0
2014-Dec-17 06:33N 55°17' E 014°48'0 0.0
2014-Dec-17 05:27N 55°17' E 014°48'0 0.0
2014-Dec-17 04:33N 55°17' E 014°48'0 0.0
2014-Dec-17 03:33N 55°17' E 014°48'0 0.0
2014-Dec-17 02:27N 55°17' E 014°48'0 0.0
2014-Dec-17 01:33N 55°17' E 014°48'0 0.0
2014-Dec-17 00:33N 55°17' E 014°48'0 0.0
2014-Dec-16 23:33N 55°17' E 014°48'0 0.0
2014-Dec-16 22:33N 55°17' E 014°48'0 0.0
2014-Dec-16 21:33N 55°17' E 014°48'0 0.0
2014-Dec-16 20:33N 55°17' E 014°48'0 0.0
2014-Dec-16 19:33N 55°17' E 014°48'0 0.0
2014-Dec-16 18:33N 55°17' E 014°48'0 0.0
2014-Dec-16 17:33N 55°17' E 014°48'0 0.0
2014-Dec-16 16:33N 55°17' E 014°48'0 0.0
2014-Dec-16 15:27N 55°17' E 014°48'0 0.0
2014-Dec-16 14:31N 55°17' E 014°48'0 0.0
2014-Dec-16 13:31N 55°17' E 014°48'2 0.8
2014-Dec-16 11:33N 55°18' E 014°49'2 0.1
2014-Dec-15 04:33N 55°17' E 014°48'2 1.9
2014-Dec-15 03:33N 55°19' E 014°48'2 0.3
2014-Dec-14 20:29N 55°17' E 014°48'0 0.0
2014-Dec-14 16:04N 55°17' E 014°48'0 0.0
2014-Dec-14 15:28N 55°17' E 014°48'0 0.0
2014-Dec-14 14:22N 55°17' E 014°48'0 0.0
2014-Dec-14 13:28N 55°17' E 014°48'0 0.0
2014-Dec-14 12:28N 55°17' E 014°48'0 0.0
2014-Dec-14 11:28N 55°17' E 014°48'0 0.0
2014-Dec-14 10:28N 55°17' E 014°48'0 0.0
2014-Dec-14 09:22N 55°17' E 014°48'1 0.2
2014-Dec-14 02:33N 55°17' E 014°50'1 0.6
2014-Dec-14 00:19N 55°17' E 014°48'0 0.0
2014-Dec-13 17:33N 55°17' E 014°48'0 0.0
2014-Dec-13 14:07N 55°17' E 014°48'4 2.3
2014-Dec-13 12:33N 55°16' E 014°54'4 1.7
2014-Dec-13 10:31N 55°17' E 014°48'0 0.0
2014-Dec-13 04:15N 55°17' E 014°48'0 0.0
2014-Dec-13 02:05N 55°17' E 014°48'2 3.3
2014-Dec-13 01:32N 55°18' E 014°51'2 1.3
2014-Dec-13 00:15N 55°17' E 014°48'0 0.0
2014-Dec-12 21:05N 55°17' E 014°48'1 1.2
2014-Dec-12 20:33N 55°17' E 014°49'1 0.2
2014-Dec-12 16:21N 55°17' E 014°48'0 0.0
2014-Dec-12 15:33N 55°17' E 014°48'0 0.0
2014-Dec-12 14:33N 55°17' E 014°48'0 0.0
2014-Dec-12 13:32N 55°17' E 014°48'0 0.0
2014-Dec-12 12:23N 55°17' E 014°48'0 0.0
2014-Dec-12 11:29N 55°17' E 014°48'0 0.0
2014-Dec-12 10:29N 55°17' E 014°48'0 0.0
2014-Dec-12 09:29N 55°17' E 014°48'0 0.0
2014-Dec-12 08:29N 55°17' E 014°48'0 0.0
2014-Dec-12 07:29N 55°17' E 014°48'2 1.8
2014-Dec-12 06:33N 55°17' E 014°51'2 1.4
2014-Dec-12 05:24N 55°17' E 014°48'0 0.0
2014-Dec-12 04:30N 55°17' E 014°48'0 0.0
2014-Dec-12 03:33N 55°17' E 014°48'0 0.0
2014-Dec-12 02:30N 55°17' E 014°48'0 0.0
2014-Dec-12 01:30N 55°17' E 014°48'0 0.0
2014-Dec-12 00:30N 55°17' E 014°48'0 0.0
2014-Dec-11 23:24N 55°17' E 014°48'0 0.0
2014-Dec-11 22:33N 55°17' E 014°48'0 0.0
2014-Dec-11 21:24N 55°17' E 014°48'0 0.0
2014-Dec-11 20:30N 55°17' E 014°48'0 0.0
2014-Dec-11 19:24N 55°17' E 014°48'0 0.0
2014-Dec-11 18:29N 55°17' E 014°48'0 0.0
2014-Dec-11 17:17N 55°17' E 014°48'0 0.0
2014-Dec-11 16:23N 55°17' E 014°48'0 0.0
2014-Dec-11 15:23N 55°17' E 014°48'0 0.0
2014-Dec-11 14:17N 55°17' E 014°48'0 0.0
2014-Dec-11 13:29N 55°17' E 014°48'0 0.0
2014-Dec-11 12:23N 55°17' E 014°48'0 0.0
2014-Dec-11 11:23N 55°17' E 014°48'0 0.0
2014-Dec-11 10:29N 55°17' E 014°48'0 0.0
2014-Dec-11 09:29N 55°17' E 014°48'0 0.0
2014-Dec-11 08:11N 55°17' E 014°48'0 0.0
2014-Dec-11 07:23N 55°17' E 014°48'2 2.7
2014-Dec-11 06:33N 55°16' E 014°52'2 2.2
2014-Dec-11 05:32N 55°17' E 014°48'0 0.0
2014-Dec-11 04:26N 55°17' E 014°48'0 0.0
2014-Dec-11 03:32N 55°17' E 014°48'0 0.0
2014-Dec-11 02:32N 55°17' E 014°48'0 0.0
2014-Dec-11 01:32N 55°17' E 014°48'0 0.0
2014-Dec-11 00:26N 55°17' E 014°48'0 0.0
2014-Dec-10 23:32N 55°17' E 014°48'0 0.0
2014-Dec-10 22:26N 55°17' E 014°48'0 0.0
2014-Dec-10 21:26N 55°17' E 014°48'3 3.0
2014-Dec-10 20:34N 55°17' E 014°53'3 2.6
2014-Dec-10 19:33N 55°17' E 014°48'0 0.0
2014-Dec-10 18:27N 55°17' E 014°48'0 0.0
2014-Dec-10 17:33N 55°17' E 014°48'0 0.0
2014-Dec-10 16:33N 55°17' E 014°48'0 0.0
2014-Dec-10 15:29N 55°17' E 014°48'0 0.0
2014-Dec-10 14:29N 55°17' E 014°48'0 0.0
2014-Dec-10 13:17N 55°17' E 014°48'0 0.0
2014-Dec-10 12:11N 55°17' E 014°48'0 0.0
2014-Dec-10 11:23N 55°17' E 014°48'0 0.0
2014-Dec-10 10:29N 55°17' E 014°48'0 0.0
2014-Dec-10 09:17N 55°17' E 014°48'0 0.0
2014-Dec-10 08:17N 55°17' E 014°48'0 0.0
2014-Dec-10 07:23N 55°17' E 014°48'0 0.0
2014-Dec-10 06:29N 55°17' E 014°48'0 0.0
2014-Dec-10 05:23N 55°17' E 014°48'0 0.0
2014-Dec-10 04:29N 55°17' E 014°48'0 0.0
2014-Dec-10 03:29N 55°17' E 014°48'0 0.0
2014-Dec-10 02:29N 55°17' E 014°48'0 0.0
2014-Dec-10 01:29N 55°17' E 014°48'0 0.0
2014-Dec-10 00:29N 55°17' E 014°48'0 0.0
2014-Dec-09 23:29N 55°17' E 014°48'0 0.0
2014-Dec-09 22:30N 55°17' E 014°48'0 0.0
2014-Dec-09 21:30N 55°17' E 014°48'2 1.7
2014-Dec-09 20:33N 55°18' E 014°50'2 1.5
2014-Dec-09 19:29N 55°17' E 014°48'0 0.0
2014-Dec-09 18:29N 55°17' E 014°48'0 0.0
2014-Dec-09 17:05N 55°17' E 014°48'0 0.0
2014-Dec-09 16:29N 55°17' E 014°48'0 0.0
2014-Dec-09 15:29N 55°17' E 014°48'0 0.0
2014-Dec-09 14:29N 55°17' E 014°48'0 0.0
2014-Dec-09 13:29N 55°17' E 014°48'0 0.0
2014-Dec-09 12:29N 55°17' E 014°48'0 0.0
2014-Dec-09 11:29N 55°17' E 014°48'0 0.0
2014-Dec-09 10:29N 55°17' E 014°48'0 0.0
2014-Dec-09 09:17N 55°17' E 014°48'0 0.0
2014-Dec-09 08:05N 55°17' E 014°48'0 0.0
2014-Dec-09 07:29N 55°17' E 014°48'0 0.0
2014-Dec-09 06:29N 55°17' E 014°48'0 0.0
2014-Dec-09 05:29N 55°17' E 014°48'0 0.0
2014-Dec-09 04:29N 55°17' E 014°48'0 0.0
2014-Dec-09 03:23N 55°17' E 014°48'0 0.0
2014-Dec-09 02:30N 55°17' E 014°48'0 0.0
2014-Dec-09 01:30N 55°17' E 014°48'0 0.0
2014-Dec-09 00:30N 55°17' E 014°48'0 0.0
2014-Dec-08 23:30N 55°17' E 014°48'0 0.0
2014-Dec-08 22:30N 55°17' E 014°48'0 0.0
2014-Dec-08 21:30N 55°17' E 014°48'0 0.0
2014-Dec-08 20:29N 55°17' E 014°48'0 0.0
2014-Dec-08 19:29N 55°17' E 014°48'0 0.0
2014-Dec-08 18:23N 55°17' E 014°48'0 0.0
2014-Dec-08 17:29N 55°17' E 014°48'0 0.0
2014-Dec-08 16:29N 55°17' E 014°48'0 0.0
2014-Dec-08 15:23N 55°17' E 014°48'0 0.0
2014-Dec-08 14:23N 55°17' E 014°48'0 0.0
2014-Dec-08 13:29N 55°17' E 014°48'0 0.0
2014-Dec-08 12:23N 55°17' E 014°48'0 0.2
2014-Dec-08 11:33N 55°17' E 014°48'0 0.2
2014-Dec-08 10:33N 55°17' E 014°48'0 0.0
2014-Dec-08 09:33N 55°17' E 014°48'0 0.0
2014-Dec-08 08:33N 55°17' E 014°48'0 0.0
2014-Dec-08 07:33N 55°17' E 014°48'0 0.0
2014-Dec-08 06:32N 55°17' E 014°48'0 0.0
2014-Dec-08 05:32N 55°17' E 014°48'0 0.0
2014-Dec-08 04:26N 55°17' E 014°48'2 2.8
2014-Dec-08 03:34N 55°19' E 014°51'2 2.3
2014-Dec-08 02:30N 55°17' E 014°48'0 0.0
2014-Dec-08 01:30N 55°17' E 014°48'0 0.0
2014-Dec-08 00:30N 55°17' E 014°48'0 0.0
2014-Dec-07 23:18N 55°17' E 014°48'0 0.0
2014-Dec-07 22:30N 55°17' E 014°48'0 0.0
2014-Dec-07 21:32N 55°17' E 014°48'0 0.0
2014-Dec-07 20:26N 55°17' E 014°48'0 0.0
2014-Dec-07 19:32N 55°17' E 014°48'  

Dump ship's entire track history